Airfield :
LOGIN :

Register | Disclaimer

   EN    FR    IT 

 










Legend :    VFR   Marginal VFR   IFR   Intensive IFR   Very Intensive IFR
Visi :
Ceiling :
>= 8 km
>= 3000ft
5 to 8 km
1000 to 3000 ft
1500m to 5 km
500 to 1000 ft
800 to 1500m
200 to 500 ft
< 800m
< 200 ft
Symbols :   Thunderstorms  Fog  Heavy snow  Heavy precipitations  Wind > 20 kt
SIGMETs :     Misc.  Thunderstorms  Icing  Turbulence  Mountain Waves  Volcanic Ashes







- Airport Elevation : 160 ft
- IATA code : FMO


EDDG - Münster Osnabrück Int.

CURRENT METAR :
  • 190950Z 23013KT 9999 SCT016 08/04 Q1017 NOSIG

EXPIRED METARs :
  • 190920Z 23014KT 9999 BKN016 07/04 Q1017 NOSIG
  • 190850Z 24012KT 9999 BKN016 07/04 Q1017 NOSIG
  • 190820Z 25012KT 9999 BKN017 07/04 Q1017 NOSIG
  • 190750Z 23009KT 200V260 9999 BKN016 07/04 Q1017 NOSIG
  • 190720Z 24009KT 9999 BKN014 07/04 Q1016 BECMG BKN020

TAF TAF EDDG
Valid from the 19 at 06:00 until the 20 at 06:00 UTC


190500Z 1906/2006 24010KT 9999 BKN020
PROB30
TEMPO 1906/1910 4000 BR BKN008
PROB30
TEMPO 1910/1915 25015G25KT
BECMG 1920/1923 23005KT
TEMPO 2003/2006 BKN014
No reported NOTAMs for that airfield.



MET'MAP, your aeronautical weather chart ! - Copyright ORBIFLY December 2007 - Disclaimer

ORBIFLY MET'MAP TEAM :

Programming & Development : Alexandra Zaïnal
Concept & Development : Baudouin d'Aumeries
Co-Development & Prog : Marc-Olivier Méhu
Technical & hardware support : Manuel Goepfert

Contact : metmap@orbifly.com




SOURCES & CREDITS :

   NOAA